EREK1: Neosho River near Erie

                                SHEF ID:       EREK1     NEOSHO R NR ERIE, KS
STATION TYPE:

PRECIP STAGE RIV-FLOW BAT-LOAD
in ft cfs volt
Ccp-Rev Ccp-Rev Ccp-Rev Ccp-Rev
(America/Chicago)
02/25 00:00 ---- 14.90 4350 12.41
02/25 01:00 ---- 14.91 4360 12.37
02/25 02:00 ---- 14.91 4360 12.36
02/25 03:00 ---- 14.91 4360 12.34
02/25 04:00 ---- 14.91 4360 12.31
02/25 05:00 ---- 14.91 4360 12.30
02/25 06:00 ---- 14.90 4350 12.27
02/25 07:00 ---- 14.90 4350 12.27
02/25 08:00 ---- 14.91 4360 12.27
02/25 09:00 ---- 14.89 4340 12.44
02/25 10:00 ---- 14.89 4340 13.09
02/25 11:00 ---- 14.87 4310 13.40
02/25 12:00 ---- 14.85 4280 13.57
02/25 13:00 ---- 14.83 4250 13.33
02/25 14:00 ---- 14.83 4250 13.30
02/25 15:00 ---- 14.83 4250 13.28
02/25 16:00 ---- 14.80 4210 13.29
02/25 17:00 ---- 14.84 4260 13.29
02/25 18:00 ---- 14.85 4280 13.28
02/25 19:00 ---- 14.85 4280 12.77
02/25 20:00 ---- 14.85 4280 12.54
02/25 21:00 ---- 14.85 4280 12.48
02/25 22:00 ---- 14.84 4260 12.44
02/25 23:00 ---- 14.83 4250 12.42
Data processed at Thu 26Feb2026 05:23 GMT

NOTICE: If you are parsing this page

Please convert to using our Data API. Starting early 2026 we will be migrating to: https://water.usace.army.mil with modern pages rendered in JavaScript. When this migration completes you will no longer be able to scrape this page! CWMSDataAPI (CDA)

Timeseries IDs (TSIDs)

TSIDs used from left to right in the data table
ERIE.Precip-Inc.Total.1Hour.1Hour.Ccp-Rev
ERIE.Stage.Inst.1Hour.0.Ccp-Rev
ERIE.Flow.Inst.1Hour.0.Ccp-Rev
ERIE.Volt-Battery Load.Inst.1Hour.0.Ccp-Rev

                            

All information presented herein is the property of the government of the United States of America and may be revised or deleted at any time without prior notice. Dissemination of this information without the expressed written consent of the Public Affairs Office, Tulsa District U.S. Army Corps of Engineers is strictly prohibited. These data are gathered electronically and, as presented, have NOT undergone any form of quality control. These data are NOT guaranteed to be valid or correct.